createdAt,value
2023-03-31T00:02:23.378Z,66.15
2023-03-31T00:05:12.279Z,65.70
2023-03-31T00:08:01.281Z,61.53
2023-03-31T00:10:49.507Z,65.30
2023-03-31T00:13:36.972Z,60.90
2023-03-31T00:16:27.219Z,71.35
2023-03-31T00:19:07.793Z,70.47
2023-03-31T00:21:54.095Z,68.85
2023-03-31T00:24:37.976Z,60.30
2023-03-31T00:27:27.710Z,58.20
2023-03-31T00:30:11.374Z,63.53
2023-03-31T00:33:00.731Z,68.40
2023-03-31T00:35:41.114Z,73.40
2023-03-31T00:38:24.699Z,79.57
2023-03-31T00:41:15.389Z,69.13
2023-03-31T00:44:30.326Z,72.65
2023-03-31T00:47:12.668Z,83.30
2023-03-31T00:49:57.227Z,85.32
2023-03-31T00:52:58.320Z,85.78
2023-03-31T00:55:56.076Z,73.57
2023-03-31T00:58:43.992Z,75.57
2023-03-31T01:01:32.501Z,74.88
2023-03-31T01:04:29.968Z,71.18
2023-03-31T01:07:52.647Z,63.40
2023-03-31T01:10:39.392Z,61.40
2023-03-31T01:13:26.686Z,61.92
2023-03-31T01:16:07.647Z,58.85
2023-03-31T01:18:49.897Z,65.47
2023-03-31T01:21:59.899Z,59.53
2023-03-31T01:25:07.536Z,66.88
2023-03-31T01:28:16.396Z,68.82
2023-03-31T01:31:15.795Z,66.07
2023-03-31T01:34:29.740Z,58.08
2023-03-31T01:37:42.796Z,56.47
2023-03-31T01:40:38.894Z,57.08
2023-03-31T01:43:57.458Z,58.60
2023-03-31T01:47:01.678Z,49.67
2023-03-31T01:50:01.505Z,47.72
2023-03-31T01:53:08.958Z,48.80
2023-03-31T01:56:05.815Z,53.78
2023-03-31T01:58:48.182Z,51.35
2023-03-31T02:01:41.160Z,53.13
2023-03-31T02:04:33.712Z,53.25
2023-03-31T02:07:40.385Z,51.30
2023-03-31T02:10:20.609Z,51.97
2023-03-31T02:13:04.426Z,46.33
2023-03-31T02:15:53.522Z,51.08
2023-03-31T02:18:39.171Z,52.25
2023-03-31T02:21:18.020Z,59.15
2023-03-31T02:24:10.435Z,60.42
2023-03-31T02:26:58.957Z,59.00
2023-03-31T02:29:48.916Z,65.22
2023-03-31T02:32:42.720Z,60.47
2023-03-31T02:35:31.402Z,59.92
2023-03-31T02:38:11.874Z,60.72
2023-03-31T02:41:01.360Z,61.15
2023-03-31T02:46:23.946Z,59.05
2023-03-31T02:49:05.265Z,79.60
2023-03-31T02:52:06.707Z,90.88
2023-03-31T02:55:01.121Z,88.18
2023-03-31T02:57:56.138Z,90.00
2023-03-31T03:01:03.427Z,91.68
2023-03-31T03:04:12.464Z,93.07
2023-03-31T03:07:15.522Z,91.63
2023-03-31T03:10:29.489Z,102.70
2023-03-31T03:13:26.750Z,93.30
2023-03-31T03:16:14.120Z,112.63
2023-03-31T03:19:08.870Z,110.63
2023-03-31T03:21:47.688Z,100.82
2023-03-31T03:24:34.330Z,104.05
2023-03-31T03:27:16.887Z,109.53
2023-03-31T03:30:00.008Z,122.05
2023-03-31T03:32:44.407Z,130.32
2023-03-31T03:35:34.369Z,121.13
2023-03-31T03:38:23.870Z,118.97
2023-03-31T03:41:13.750Z,111.88
2023-03-31T03:44:00.029Z,106.32
2023-03-31T03:46:43.203Z,107.65
2023-03-31T03:49:29.747Z,98.30
2023-03-31T03:52:21.133Z,113.00
2023-03-31T03:55:01.967Z,108.88
2023-03-31T03:57:50.404Z,99.10
2023-03-31T04:00:37.196Z,101.57
2023-03-31T04:03:20.708Z,103.28
2023-03-31T04:06:10.841Z,108.07
2023-03-31T04:08:54.358Z,101.97
2023-03-31T04:11:41.615Z,101.53
2023-03-31T04:14:32.140Z,105.40
2023-03-31T04:17:18.879Z,107.93
2023-03-31T04:20:02.478Z,108.32
2023-03-31T04:22:47.386Z,111.15
2023-03-31T04:25:30.879Z,119.30
2023-03-31T04:28:20.646Z,112.25
2023-03-31T04:31:01.403Z,105.93
2023-03-31T04:33:48.236Z,113.20
2023-03-31T04:36:38.363Z,102.18
2023-03-31T04:39:41.287Z,100.32
2023-03-31T04:42:25.005Z,114.97
2023-03-31T04:45:08.698Z,117.60
2023-03-31T04:47:55.184Z,125.55
2023-03-31T04:50:38.684Z,125.28
2023-03-31T04:53:16.558Z,132.90
2023-03-31T04:55:54.788Z,127.93
2023-03-31T04:58:38.084Z,133.98
2023-03-31T05:01:24.459Z,128.25
2023-03-31T05:06:53.722Z,109.93
2023-03-31T05:09:44.038Z,123.28
2023-03-31T05:12:30.125Z,115.63
2023-03-31T05:15:09.780Z,125.85
2023-03-31T05:17:53.414Z,121.38
2023-03-31T05:20:44.294Z,115.90
2023-03-31T05:23:33.612Z,111.95
2023-03-31T05:26:25.384Z,107.78
2023-03-31T05:29:10.314Z,104.90
2023-03-31T05:31:53.783Z,103.07
2023-03-31T05:34:43.235Z,104.20
2023-03-31T05:37:31.830Z,117.82
2023-03-31T05:40:29.416Z,111.85
2023-03-31T05:43:13.165Z,117.35
2023-03-31T05:46:02.223Z,110.97
2023-03-31T05:48:48.144Z,116.10
2023-03-31T05:51:32.979Z,114.80
2023-03-31T05:54:15.624Z,102.40
2023-03-31T05:57:10.856Z,100.07
2023-03-31T06:00:02.566Z,83.50
2023-03-31T06:02:46.273Z,77.82
2023-03-31T06:05:35.366Z,71.82
2023-03-31T06:08:28.161Z,69.50
2023-03-31T06:11:15.181Z,44.10
2023-03-31T06:14:13.330Z,32.60
2023-03-31T06:17:01.865Z,23.02
2023-03-31T06:19:46.350Z,21.48
2023-03-31T06:22:29.460Z,15.20
2023-03-31T06:25:21.881Z,14.90
2023-03-31T06:28:01.446Z,13.20
2023-03-31T06:30:47.653Z,11.60
2023-03-31T06:33:40.083Z,9.93
2023-03-31T06:36:31.985Z,9.02
2023-03-31T06:39:12.408Z,10.60
2023-03-31T06:42:02.910Z,10.15
2023-03-31T06:44:59.367Z,10.38
2023-03-31T06:47:46.190Z,11.07
2023-03-31T06:50:30.448Z,8.52
2023-03-31T06:53:17.322Z,9.77
2023-03-31T06:56:09.677Z,8.05
2023-03-31T06:58:53.571Z,7.32
2023-03-31T07:01:48.827Z,7.53
2023-03-31T07:04:30.521Z,6.50
2023-03-31T07:07:11.282Z,6.57
2023-03-31T07:09:51.401Z,7.10
2023-03-31T07:12:44.767Z,7.05
2023-03-31T07:15:28.760Z,5.70
2023-03-31T07:18:15.994Z,5.80
2023-03-31T07:21:09.953Z,5.43
2023-03-31T07:26:38.376Z,5.07
2023-03-31T07:29:23.689Z,4.88
2023-03-31T07:32:13.726Z,5.32
2023-03-31T07:34:54.376Z,5.18
2023-03-31T07:37:43.271Z,4.95
2023-03-31T07:40:23.589Z,4.50
2023-03-31T07:43:03.908Z,4.25
2023-03-31T07:45:44.141Z,4.53
2023-03-31T07:48:34.096Z,4.38
2023-03-31T07:51:14.662Z,4.07
2023-03-31T07:54:00.611Z,4.68
2023-03-31T07:56:47.229Z,3.83
2023-03-31T07:59:30.486Z,4.05
2023-03-31T08:02:20.646Z,3.88
2023-03-31T08:05:11.711Z,4.82
2023-03-31T08:07:52.809Z,5.03
2023-03-31T08:10:37.938Z,3.60
2023-03-31T08:13:15.094Z,4.55
2023-03-31T08:15:56.300Z,3.90
2023-03-31T08:18:50.831Z,3.90
2023-03-31T08:21:31.297Z,3.85
2023-03-31T08:24:23.402Z,3.70
2023-03-31T08:27:04.700Z,3.35
2023-03-31T08:29:47.511Z,3.72
2023-03-31T08:32:34.688Z,3.83
2023-03-31T08:35:10.466Z,4.28
2023-03-31T08:37:49.551Z,3.97
2023-03-31T08:40:32.425Z,3.42
2023-03-31T08:43:28.376Z,3.75
2023-03-31T08:46:21.225Z,4.00
2023-03-31T08:49:25.658Z,3.88
2023-03-31T08:52:09.975Z,3.75
2023-03-31T08:54:52.660Z,3.25
2023-03-31T08:57:43.021Z,3.67
2023-03-31T09:00:26.741Z,3.63
2023-03-31T09:03:19.439Z,3.42
2023-03-31T09:06:12.414Z,3.42
2023-03-31T09:09:08.371Z,3.45
2023-03-31T09:12:08.082Z,3.05
2023-03-31T09:15:05.513Z,3.42
2023-03-31T09:17:52.118Z,3.10
2023-03-31T09:20:32.123Z,3.33
2023-03-31T09:23:23.710Z,3.65
2023-03-31T09:26:11.072Z,3.85
2023-03-31T09:28:54.031Z,3.47
2023-03-31T09:31:36.641Z,3.78
2023-03-31T09:34:38.637Z,4.05
2023-03-31T09:37:19.830Z,2.33
2023-03-31T09:40:00.400Z,2.42
2023-03-31T09:42:42.166Z,2.53
2023-03-31T09:45:34.118Z,2.78
2023-03-31T09:48:46.344Z,2.63
2023-03-31T09:51:39.071Z,2.88
2023-03-31T09:54:58.482Z,3.40
2023-03-31T09:57:50.762Z,3.38
2023-03-31T10:00:33.380Z,3.10
2023-03-31T10:03:20.361Z,3.60
2023-03-31T10:06:02.428Z,3.92
2023-03-31T10:09:08.071Z,4.47
2023-03-31T10:12:12.812Z,4.30
2023-03-31T10:14:54.568Z,4.10
2023-03-31T10:17:47.042Z,3.80
2023-03-31T10:20:49.403Z,4.05
2023-03-31T10:23:44.909Z,3.45
2023-03-31T10:26:32.720Z,3.65
2023-03-31T10:29:15.539Z,3.65
2023-03-31T10:31:54.554Z,3.75
2023-03-31T10:34:31.643Z,4.35
2023-03-31T10:37:36.616Z,4.30
2023-03-31T10:40:38.007Z,3.20
2023-03-31T10:43:30.244Z,3.70
2023-03-31T10:46:13.376Z,3.78
2023-03-31T10:48:55.368Z,3.70
2023-03-31T10:51:40.730Z,3.47
2023-03-31T10:54:19.270Z,2.95
2023-03-31T10:57:35.112Z,2.40
2023-03-31T11:00:39.299Z,2.97
2023-03-31T11:03:40.585Z,2.92
2023-03-31T11:06:33.312Z,3.13
2023-03-31T11:09:34.433Z,2.78
2023-03-31T11:12:52.870Z,2.90
2023-03-31T11:15:42.990Z,2.28
2023-03-31T11:18:44.364Z,2.13
2023-03-31T11:21:28.424Z,2.35
2023-03-31T11:27:12.741Z,2.47
2023-03-31T11:30:20.438Z,2.25
2023-03-31T11:33:04.358Z,2.30
2023-03-31T11:39:07.815Z,2.05
2023-03-31T11:41:59.045Z,2.35
2023-03-31T11:44:46.057Z,1.90
2023-03-31T11:47:56.868Z,1.67
2023-03-31T11:50:45.777Z,1.73
2023-03-31T11:53:29.798Z,2.60
2023-03-31T11:59:09.355Z,2.88
2023-03-31T12:02:11.313Z,2.58
2023-03-31T12:04:56.498Z,2.92
2023-03-31T12:07:48.816Z,2.53
2023-03-31T12:10:55.290Z,2.42
2023-03-31T12:13:51.310Z,2.28
2023-03-31T12:16:52.879Z,2.50
2023-03-31T12:19:58.338Z,2.50
2023-03-31T12:22:51.291Z,2.40
2023-03-31T12:25:36.480Z,2.63
2023-03-31T12:28:21.322Z,3.00
2023-03-31T12:31:14.852Z,2.53
2023-03-31T12:34:06.338Z,2.58
2023-03-31T12:37:02.085Z,2.58
2023-03-31T12:39:48.584Z,2.53
2023-03-31T12:43:00.362Z,2.88
2023-03-31T12:45:44.043Z,3.15
2023-03-31T12:48:59.511Z,3.08
2023-03-31T12:52:00.945Z,2.72
2023-03-31T12:54:52.001Z,2.17
2023-03-31T12:57:31.255Z,2.10
2023-03-31T13:00:47.268Z,2.15
2023-03-31T13:04:01.640Z,2.22
2023-03-31T13:07:01.342Z,2.03
2023-03-31T13:09:59.107Z,1.83
2023-03-31T13:12:39.932Z,2.00
2023-03-31T13:15:27.511Z,2.10
2023-03-31T13:18:09.110Z,2.05
2023-03-31T13:20:46.277Z,2.08
2023-03-31T13:23:34.108Z,2.47
2023-03-31T13:26:40.604Z,2.47
2023-03-31T13:30:09.395Z,2.30
2023-03-31T13:33:50.376Z,2.78
2023-03-31T13:37:02.665Z,2.58
2023-03-31T13:40:12.403Z,2.58
2023-03-31T13:43:07.100Z,3.08
2023-03-31T13:46:17.511Z,3.92
2023-03-31T13:49:33.403Z,3.15
2023-03-31T13:52:17.790Z,3.30
2023-03-31T13:55:13.156Z,2.97
2023-03-31T13:58:19.966Z,2.88
2023-03-31T14:01:19.826Z,3.17
2023-03-31T14:04:21.857Z,3.00
2023-03-31T14:07:37.857Z,3.20
2023-03-31T14:10:43.275Z,2.90
2023-03-31T14:13:28.919Z,3.22
2023-03-31T14:16:21.123Z,2.92
2023-03-31T14:22:23.409Z,2.78
2023-03-31T14:25:27.190Z,3.17
2023-03-31T14:28:25.270Z,2.70
2023-03-31T14:31:24.349Z,2.70
2023-03-31T14:34:34.502Z,2.53
2023-03-31T14:37:24.699Z,2.80
2023-03-31T14:40:02.015Z,2.35
2023-03-31T14:42:53.141Z,2.25
2023-03-31T14:45:42.510Z,2.58
2023-03-31T14:48:23.728Z,2.17
2023-03-31T14:51:17.064Z,2.45
2023-03-31T14:54:19.241Z,3.13
2023-03-31T14:57:07.796Z,2.03
2023-03-31T14:59:58.681Z,2.13
2023-03-31T15:02:47.613Z,2.45
2023-03-31T15:05:46.450Z,2.70
2023-03-31T15:08:29.834Z,2.33
2023-03-31T15:11:19.927Z,2.20
2023-03-31T15:14:05.707Z,2.65
2023-03-31T15:16:57.189Z,2.38
2023-03-31T15:19:54.683Z,2.53
2023-03-31T15:22:35.987Z,2.65
2023-03-31T15:25:24.339Z,2.40
2023-03-31T15:28:18.309Z,2.85
2023-03-31T15:31:09.652Z,2.50
2023-03-31T15:33:55.168Z,2.70
2023-03-31T15:36:40.453Z,2.45
2023-03-31T15:39:22.681Z,2.78
2023-03-31T15:42:05.627Z,2.78
2023-03-31T15:45:11.377Z,2.50
2023-03-31T15:47:59.392Z,2.90
2023-03-31T15:50:45.439Z,3.00
2023-03-31T15:53:54.075Z,2.95
2023-03-31T15:56:48.405Z,3.03
2023-03-31T16:02:56.558Z,2.70
2023-03-31T16:06:09.021Z,3.22
2023-03-31T16:09:08.468Z,3.17
2023-03-31T16:12:30.856Z,3.35
2023-03-31T16:15:15.435Z,3.10
2023-03-31T16:18:12.206Z,2.97
2023-03-31T16:21:15.673Z,3.05
2023-03-31T16:23:58.475Z,3.30
2023-03-31T16:26:49.692Z,2.92
2023-03-31T16:29:34.393Z,2.55
2023-03-31T16:32:25.392Z,2.88
2023-03-31T16:34:59.251Z,3.20
2023-03-31T16:37:42.232Z,3.00
2023-03-31T16:40:46.710Z,2.92
2023-03-31T16:43:36.786Z,3.05
2023-03-31T16:46:18.364Z,3.55
2023-03-31T16:49:12.940Z,2.70
2023-03-31T16:52:05.231Z,3.30
2023-03-31T16:54:52.551Z,2.70
2023-03-31T16:57:37.359Z,2.40
2023-03-31T17:00:45.449Z,2.65
2023-03-31T17:03:29.737Z,2.75
2023-03-31T17:06:21.563Z,2.55
2023-03-31T17:09:05.769Z,2.58
2023-03-31T17:11:48.857Z,2.30
2023-03-31T17:14:49.226Z,2.77
2023-03-31T17:17:37.478Z,2.60
2023-03-31T17:20:28.759Z,2.60
2023-03-31T17:23:17.380Z,2.92
2023-03-31T17:25:54.102Z,3.00
2023-03-31T17:28:41.157Z,2.63
2023-03-31T17:31:44.286Z,3.30
2023-03-31T17:34:43.426Z,3.63
2023-03-31T17:37:21.812Z,3.42
2023-03-31T17:40:02.464Z,3.10
2023-03-31T17:43:05.830Z,3.13
2023-03-31T17:46:19.391Z,3.10
2023-03-31T17:49:19.464Z,3.15
2023-03-31T17:52:10.070Z,2.97
2023-03-31T17:54:50.726Z,3.45
2023-03-31T17:57:37.428Z,3.37
2023-03-31T18:00:16.671Z,3.78
2023-03-31T18:03:08.587Z,3.08
2023-03-31T18:05:55.528Z,3.47
2023-03-31T18:08:58.544Z,3.55
2023-03-31T18:11:45.850Z,3.53
2023-03-31T18:14:35.285Z,4.05
2023-03-31T18:17:21.418Z,4.85
2023-03-31T18:20:05.745Z,4.63
2023-03-31T18:22:55.472Z,7.47
2023-03-31T18:25:37.620Z,7.72
2023-03-31T18:28:22.391Z,6.55
2023-03-31T18:31:12.700Z,5.93
2023-03-31T18:33:58.327Z,7.20
2023-03-31T18:36:41.808Z,11.00
2023-03-31T18:39:26.336Z,9.30
2023-03-31T18:42:22.780Z,9.43
2023-03-31T18:45:08.968Z,5.05
2023-03-31T18:47:56.396Z,4.80
2023-03-31T18:50:34.160Z,5.60
2023-03-31T18:53:18.143Z,4.75
2023-03-31T18:56:09.620Z,5.07
2023-03-31T18:58:57.017Z,4.93
2023-03-31T19:01:46.886Z,5.32
2023-03-31T19:04:26.379Z,4.72
2023-03-31T19:07:12.648Z,4.85
2023-03-31T19:09:57.507Z,5.47
2023-03-31T19:12:43.882Z,5.72
2023-03-31T19:15:33.326Z,4.97
2023-03-31T19:18:31.120Z,5.20
2023-03-31T19:21:25.820Z,5.75
2023-03-31T19:24:15.384Z,6.18
2023-03-31T19:27:05.695Z,6.75
2023-03-31T19:29:54.763Z,6.75
2023-03-31T19:32:43.895Z,8.05
2023-03-31T19:35:27.536Z,9.00
2023-03-31T19:38:36.767Z,9.80
2023-03-31T19:41:28.508Z,9.35
2023-03-31T19:44:09.705Z,6.80
2023-03-31T19:46:58.783Z,4.75
2023-03-31T19:49:47.722Z,3.90
2023-03-31T19:52:31.733Z,2.35
2023-03-31T19:55:17.732Z,2.20
2023-03-31T19:58:04.458Z,2.03
2023-03-31T20:00:48.453Z,1.92
2023-03-31T20:03:36.802Z,1.75
2023-03-31T20:06:22.484Z,2.15
2023-03-31T20:09:09.177Z,2.50
2023-03-31T20:11:47.575Z,3.05
2023-03-31T20:14:36.662Z,2.03
2023-03-31T20:17:24.326Z,3.00
2023-03-31T20:20:02.333Z,1.88
2023-03-31T20:22:53.436Z,2.45
2023-03-31T20:25:41.651Z,1.85
2023-03-31T20:28:22.498Z,2.20
2023-03-31T20:31:19.040Z,2.15
2023-03-31T20:34:22.506Z,2.05
2023-03-31T20:37:11.031Z,1.98
2023-03-31T20:39:59.025Z,2.33
2023-03-31T20:42:45.628Z,2.67
2023-03-31T20:45:27.247Z,2.85
2023-03-31T20:48:19.901Z,3.15
2023-03-31T20:51:09.325Z,6.82
2023-03-31T20:53:56.456Z,3.70
2023-03-31T20:56:55.545Z,4.70
2023-03-31T20:59:38.659Z,5.63
2023-03-31T21:02:30.441Z,5.95
2023-03-31T21:05:08.528Z,7.40
2023-03-31T21:08:08.682Z,6.20
2023-03-31T21:11:01.670Z,8.05
2023-03-31T21:13:42.489Z,7.35
2023-03-31T21:16:29.466Z,9.73
2023-03-31T21:19:09.585Z,10.23
2023-03-31T21:21:56.005Z,10.35
2023-03-31T21:24:48.987Z,11.07
2023-03-31T21:27:29.366Z,8.40
2023-03-31T21:30:12.484Z,8.52
2023-03-31T21:32:50.798Z,10.88
2023-03-31T21:35:32.050Z,9.32
2023-03-31T21:38:13.589Z,10.30
2023-03-31T21:41:09.400Z,11.18
2023-03-31T21:44:00.428Z,8.60
2023-03-31T21:46:47.601Z,9.32
2023-03-31T21:49:28.934Z,8.52
2023-03-31T21:52:11.522Z,8.85
2023-03-31T21:54:51.765Z,8.63
2023-03-31T21:57:32.553Z,8.93
2023-03-31T22:00:13.939Z,7.57
2023-03-31T22:03:06.249Z,9.52
2023-03-31T22:06:00.330Z,9.18
2023-03-31T22:08:39.656Z,9.40
2023-03-31T22:11:15.040Z,8.98
2023-03-31T22:13:52.752Z,8.57
2023-03-31T22:16:37.436Z,8.57
2023-03-31T22:19:18.338Z,8.48
2023-03-31T22:21:59.292Z,7.72
2023-03-31T22:24:50.684Z,7.80
2023-03-31T22:27:28.475Z,8.23
2023-03-31T22:30:11.251Z,9.68
2023-03-31T22:32:51.609Z,8.82
2023-03-31T22:35:28.771Z,9.52
2023-03-31T22:38:08.805Z,10.38
2023-03-31T22:40:57.035Z,11.18
2023-03-31T22:43:36.299Z,8.80
2023-03-31T22:46:20.129Z,9.23
2023-03-31T22:48:56.361Z,9.40
2023-03-31T22:51:30.170Z,8.98
2023-03-31T22:54:07.987Z,8.18
2023-03-31T22:56:51.077Z,8.57
2023-03-31T22:59:29.529Z,8.18
2023-03-31T23:02:08.277Z,7.78
2023-03-31T23:04:48.717Z,8.10
2023-03-31T23:07:31.056Z,7.82
2023-03-31T23:10:15.402Z,6.75
2023-03-31T23:13:00.663Z,6.95
2023-03-31T23:15:46.490Z,6.05
2023-03-31T23:18:25.776Z,6.95
2023-03-31T23:21:05.655Z,5.22
2023-03-31T23:23:51.381Z,5.72
2023-03-31T23:26:35.604Z,5.93
2023-03-31T23:29:22.429Z,5.50
2023-03-31T23:32:06.237Z,5.72
2023-03-31T23:34:44.659Z,6.35
2023-03-31T23:37:37.858Z,6.25
2023-03-31T23:40:22.666Z,7.43
2023-03-31T23:43:01.894Z,7.00
2023-03-31T23:45:42.501Z,6.65
2023-03-31T23:48:23.399Z,6.32
2023-03-31T23:53:48.687Z,6.68
2023-03-31T23:56:34.173Z,7.35
2023-03-31T23:59:22.756Z,8.73
